createdAt,value
2022-07-30T00:00:53.396Z,1125.64
2022-07-30T00:01:53.348Z,1125.58
2022-07-30T00:02:53.338Z,1125.46
2022-07-30T00:03:53.389Z,1125.47
2022-07-30T00:04:53.345Z,1125.37
2022-07-30T00:05:53.371Z,1125.31
2022-07-30T00:06:53.368Z,1125.31
2022-07-30T00:07:53.371Z,1125.37
2022-07-30T00:08:53.359Z,1125.39
2022-07-30T00:09:53.381Z,1125.41
2022-07-30T00:10:53.376Z,1125.46
2022-07-30T00:11:53.371Z,1125.55
2022-07-30T00:12:53.396Z,1125.58
2022-07-30T00:13:53.375Z,1125.6
2022-07-30T00:14:53.356Z,1125.63
2022-07-30T00:15:53.364Z,1125.71
2022-07-30T00:16:53.425Z,1125.76
2022-07-30T00:17:53.370Z,1125.88
2022-07-30T00:18:53.388Z,1125.96
2022-07-30T00:19:53.396Z,1125.97
2022-07-30T00:20:53.375Z,1126.02
2022-07-30T00:21:53.425Z,1126.1
2022-07-30T00:22:53.406Z,1126.19
2022-07-30T00:24:01.280Z,1126.21
2022-07-30T00:24:53.377Z,1126.33
2022-07-30T00:25:53.375Z,1126.24
2022-07-30T00:26:53.381Z,1126.25
2022-07-30T00:27:53.378Z,1126.21
2022-07-30T00:28:53.382Z,1126.25
2022-07-30T00:29:53.386Z,1126.28
2022-07-30T00:30:56.227Z,1126.3
2022-07-30T00:31:53.389Z,1126.34
2022-07-30T00:32:53.429Z,1126.38
2022-07-30T00:33:53.391Z,1126.39
2022-07-30T00:34:53.395Z,1126.45
2022-07-30T00:35:53.392Z,1126.5
2022-07-30T00:36:53.397Z,1126.55
2022-07-30T00:37:53.426Z,1126.62
2022-07-30T00:38:53.399Z,1126.69
2022-07-30T00:39:53.400Z,1126.74
2022-07-30T00:40:53.403Z,1126.73
2022-07-30T00:41:53.403Z,1126.71
2022-07-30T00:42:53.442Z,1126.77
2022-07-30T00:43:53.407Z,1126.75
2022-07-30T00:48:53.593Z,1127.05
2022-07-30T00:49:53.420Z,1127.08
2022-07-30T00:50:53.424Z,1127.1
2022-07-30T00:51:53.422Z,1127.09
2022-07-30T00:52:53.451Z,1127.16
2022-07-30T00:53:53.431Z,1127.08
2022-07-30T00:54:53.427Z,1127.08
2022-07-30T00:55:53.429Z,1127.11
2022-07-30T00:56:53.433Z,1127.05
2022-07-30T00:57:53.460Z,1127.09
2022-07-30T00:58:53.438Z,1127.1
2022-07-30T00:59:56.283Z,1127.13
2022-07-30T01:00:53.500Z,1127.18
2022-07-30T01:01:53.519Z,1127.17
2022-07-30T01:02:53.466Z,1127.2
2022-07-30T01:03:53.444Z,1127.31
2022-07-30T01:04:53.449Z,1127.29
2022-07-30T01:05:53.450Z,1127.31
2022-07-30T01:06:53.454Z,1127.32
2022-07-30T01:07:53.475Z,1127.38
2022-07-30T01:08:53.455Z,1127.4
2022-07-30T01:09:53.456Z,1127.43
2022-07-30T01:10:54.563Z,1127.41
2022-07-30T01:11:53.463Z,1127.41
2022-07-30T01:12:53.481Z,1127.34
2022-07-30T01:13:53.461Z,1127.34
2022-07-30T01:14:53.476Z,1127.4
2022-07-30T01:15:53.467Z,1127.38
2022-07-30T01:16:53.495Z,1127.37
2022-07-30T01:17:53.497Z,1127.35
2022-07-30T01:18:53.470Z,1127.37
2022-07-30T01:19:53.475Z,1127.39
2022-07-30T01:20:53.478Z,1127.44
2022-07-30T01:21:53.479Z,1127.35
2022-07-30T01:22:53.501Z,1127.36
2022-07-30T01:23:53.483Z,1127.43
2022-07-30T01:24:53.483Z,1127.46
2022-07-30T01:25:53.482Z,1127.5
2022-07-30T01:26:53.486Z,1127.61
2022-07-30T01:27:53.542Z,1127.65
2022-07-30T01:28:53.489Z,1127.66
2022-07-30T01:29:53.491Z,1127.66
2022-07-30T01:30:53.493Z,1127.72
2022-07-30T01:31:53.581Z,1127.79
2022-07-30T01:32:53.540Z,1127.76
2022-07-30T01:33:53.501Z,1127.72
2022-07-30T01:34:53.501Z,1127.73
2022-07-30T01:35:53.504Z,1127.74
2022-07-30T01:36:53.505Z,1127.67
2022-07-30T01:37:53.553Z,1127.72
2022-07-30T01:38:53.508Z,1127.76
2022-07-30T01:39:53.514Z,1127.75
2022-07-30T01:40:53.511Z,1127.74
2022-07-30T01:41:53.513Z,1127.85
2022-07-30T01:42:54.806Z,1127.86
2022-07-30T01:43:53.517Z,1127.9
2022-07-30T01:44:53.519Z,1127.96
2022-07-30T01:45:53.590Z,1128.03
2022-07-30T01:46:53.525Z,1128
2022-07-30T01:47:53.525Z,1128
2022-07-30T01:48:53.571Z,1128.05
2022-07-30T01:49:53.531Z,1127.96
2022-07-30T01:50:53.530Z,1127.99
2022-07-30T01:51:53.540Z,1127.92
2022-07-30T01:52:53.534Z,1127.89
2022-07-30T01:53:56.538Z,1127.89
2022-07-30T01:54:53.536Z,1127.94
2022-07-30T01:55:53.536Z,1127.88
2022-07-30T01:56:53.682Z,1127.95
2022-07-30T01:57:53.542Z,1127.95
2022-07-30T01:58:53.544Z,1127.91
2022-07-30T01:59:53.552Z,1128.04
2022-07-30T02:00:53.562Z,1128.05
2022-07-30T02:01:53.549Z,1128.13
2022-07-30T02:02:53.590Z,1128.17
2022-07-30T02:03:53.634Z,1128.16
2022-07-30T02:04:56.385Z,1128.21
2022-07-30T02:05:53.562Z,1128.15
2022-07-30T02:06:53.558Z,1128.1
2022-07-30T02:07:53.557Z,1128.04
2022-07-30T02:08:53.564Z,1127.96
2022-07-30T02:09:53.563Z,1127.96
2022-07-30T02:10:53.564Z,1127.88
2022-07-30T02:11:53.566Z,1127.89
2022-07-30T02:12:53.569Z,1127.94
2022-07-30T02:13:53.567Z,1128
2022-07-30T02:14:53.571Z,1128.01
2022-07-30T02:15:53.570Z,1128.05
2022-07-30T02:16:53.578Z,1128.08
2022-07-30T02:17:53.583Z,1128.14
2022-07-30T02:18:53.581Z,1128.13
2022-07-30T02:19:53.608Z,1128.17
2022-07-30T02:20:53.583Z,1128.22
2022-07-30T02:21:53.588Z,1128.26
2022-07-30T02:22:53.585Z,1128.32
2022-07-30T02:23:53.588Z,1128.39
2022-07-30T02:24:53.600Z,1128.41
2022-07-30T02:25:53.594Z,1128.41
2022-07-30T02:26:53.594Z,1128.47
2022-07-30T02:27:53.601Z,1128.46
2022-07-30T02:28:53.597Z,1128.53
2022-07-30T02:29:53.600Z,1128.56
2022-07-30T02:30:53.599Z,1128.57
2022-07-30T02:31:53.614Z,1128.59
2022-07-30T02:32:53.603Z,1128.63
2022-07-30T02:33:53.604Z,1128.64
2022-07-30T02:34:53.614Z,1128.62
2022-07-30T02:35:53.609Z,1128.67
2022-07-30T02:36:53.610Z,1128.67
2022-07-30T02:37:53.615Z,1128.7
2022-07-30T02:38:53.637Z,1128.75
2022-07-30T02:39:53.616Z,1128.83
2022-07-30T02:40:53.620Z,1128.85
2022-07-30T02:41:53.618Z,1128.95
2022-07-30T02:42:53.623Z,1128.96
2022-07-30T02:43:53.623Z,1129.02
2022-07-30T02:44:53.626Z,1129.1
2022-07-30T02:45:53.628Z,1129.11
2022-07-30T02:46:53.746Z,1129.24
2022-07-30T02:47:53.632Z,1129.28
2022-07-30T02:48:53.650Z,1129.4
2022-07-30T02:49:53.651Z,1129.43
2022-07-30T02:50:53.635Z,1129.45
2022-07-30T02:51:53.638Z,1129.52
2022-07-30T02:52:53.638Z,1129.52
2022-07-30T02:53:53.642Z,1129.56
2022-07-30T02:54:53.642Z,1129.59
2022-07-30T02:55:53.646Z,1129.63
2022-07-30T02:56:53.644Z,1129.65
2022-07-30T02:57:53.652Z,1129.74
2022-07-30T02:58:53.650Z,1129.88
2022-07-30T02:59:53.651Z,1129.92
2022-07-30T03:00:53.734Z,1130.03
2022-07-30T03:01:53.738Z,1130.1
2022-07-30T03:02:55.157Z,1130.22
2022-07-30T03:03:53.665Z,1130.31
2022-07-30T03:04:53.659Z,1130.44
2022-07-30T03:05:53.663Z,1130.49
2022-07-30T03:06:53.662Z,1130.55
2022-07-30T03:07:53.663Z,1130.56
2022-07-30T03:08:53.665Z,1130.58
2022-07-30T03:09:53.668Z,1130.53
2022-07-30T03:10:53.672Z,1130.56
2022-07-30T03:11:53.674Z,1130.58
2022-07-30T03:12:53.697Z,1130.62
2022-07-30T03:13:53.677Z,1130.69
2022-07-30T03:14:53.692Z,1130.7
2022-07-30T03:15:53.730Z,1130.69
2022-07-30T03:16:53.688Z,1130.74
2022-07-30T03:17:53.685Z,1130.74
2022-07-30T03:18:53.683Z,1130.76
2022-07-30T03:19:53.697Z,1130.77
2022-07-30T03:20:53.690Z,1130.81
2022-07-30T03:21:53.690Z,1130.81
2022-07-30T03:22:53.694Z,1130.87
2022-07-30T03:23:53.693Z,1130.83
2022-07-30T03:24:53.725Z,1130.92
2022-07-30T03:25:54.463Z,1130.87
2022-07-30T03:26:56.527Z,1130.94
2022-07-30T03:27:53.699Z,1130.93
2022-07-30T03:28:53.701Z,1130.9
2022-07-30T03:29:53.708Z,1130.92
2022-07-30T03:30:53.795Z,1130.96
2022-07-30T03:31:53.812Z,1130.97
2022-07-30T03:32:53.714Z,1131.01
2022-07-30T03:33:53.713Z,1131.07
2022-07-30T03:34:53.712Z,1131.11
2022-07-30T03:35:53.719Z,1131.13
2022-07-30T03:36:53.720Z,1131.1
2022-07-30T03:37:56.572Z,1131.13
2022-07-30T03:38:53.724Z,1131.15
2022-07-30T03:39:53.723Z,1131.17
2022-07-30T03:40:53.728Z,1131.16
2022-07-30T03:41:53.728Z,1131.2
2022-07-30T03:42:53.728Z,1131.23
2022-07-30T03:43:53.749Z,1131.26
2022-07-30T03:44:53.730Z,1131.25
2022-07-30T03:45:53.733Z,1131.25
2022-07-30T03:46:53.822Z,1131.26
2022-07-30T03:47:53.737Z,1131.28
2022-07-30T03:48:53.792Z,1131.28
2022-07-30T03:49:53.738Z,1131.26
2022-07-30T03:50:53.740Z,1131.27
2022-07-30T03:51:53.747Z,1131.27
2022-07-30T03:52:53.746Z,1131.24
2022-07-30T03:53:53.748Z,1131.26
2022-07-30T03:54:53.753Z,1131.24
2022-07-30T03:55:53.754Z,1131.28
2022-07-30T03:56:53.751Z,1131.28
2022-07-30T03:57:53.759Z,1131.32
2022-07-30T03:58:53.754Z,1131.3
2022-07-30T03:59:53.759Z,1131.34
2022-07-30T04:00:53.765Z,1131.33
2022-07-30T04:01:53.813Z,1131.42
2022-07-30T04:02:53.764Z,1131.41
2022-07-30T04:03:53.838Z,1131.45
2022-07-30T04:04:53.768Z,1131.42
2022-07-30T04:05:53.770Z,1131.41
2022-07-30T04:06:53.767Z,1131.38
2022-07-30T04:07:53.774Z,1131.36
2022-07-30T04:08:53.773Z,1131.34
2022-07-30T04:09:56.667Z,1131.38
2022-07-30T04:10:53.779Z,1131.38
2022-07-30T04:11:53.778Z,1131.36
2022-07-30T04:12:53.784Z,1131.38
2022-07-30T04:13:53.803Z,1131.36
2022-07-30T04:14:53.783Z,1131.41
2022-07-30T04:16:38.560Z,1131.39
2022-07-30T04:17:05.706Z,1131.44
2022-07-30T04:18:05.386Z,1131.42
2022-07-30T04:19:05.406Z,1131.46
2022-07-30T04:20:05.385Z,1131.44
2022-07-30T04:21:05.386Z,1131.43
2022-07-30T04:22:06.680Z,1131.49
2022-07-30T04:23:05.388Z,1131.45
2022-07-30T04:24:05.785Z,1131.47
2022-07-30T04:25:05.393Z,1131.48
2022-07-30T04:26:05.394Z,1131.48
2022-07-30T04:27:05.397Z,1131.43
2022-07-30T04:28:05.396Z,1131.51
2022-07-30T04:29:05.442Z,1131.49
2022-07-30T04:30:05.413Z,1131.48
2022-07-30T04:31:05.440Z,1131.54
2022-07-30T04:32:05.404Z,1131.49
2022-07-30T04:33:08.603Z,1131.52
2022-07-30T04:34:05.432Z,1131.55
2022-07-30T04:35:05.409Z,1131.53
2022-07-30T04:36:05.411Z,1131.54
2022-07-30T04:37:05.415Z,1131.59
2022-07-30T04:38:05.413Z,1131.65
2022-07-30T04:39:05.465Z,1131.59
2022-07-30T04:40:05.418Z,1131.71
2022-07-30T04:41:05.418Z,1131.65
2022-07-30T04:42:05.424Z,1131.69
2022-07-30T04:43:05.433Z,1131.64
2022-07-30T04:44:08.783Z,1131.72
2022-07-30T04:45:05.428Z,1131.68
2022-07-30T04:46:05.488Z,1131.73
2022-07-30T04:47:05.431Z,1131.77
2022-07-30T04:48:05.433Z,1131.81
2022-07-30T04:49:05.484Z,1131.8
2022-07-30T04:50:05.437Z,1131.86
2022-07-30T04:51:05.440Z,1131.86
2022-07-30T04:52:05.446Z,1131.87
2022-07-30T04:53:05.442Z,1131.84
2022-07-30T04:54:05.441Z,1131.86
2022-07-30T04:55:05.655Z,1131.93
2022-07-30T04:56:05.453Z,1131.89
2022-07-30T04:57:05.815Z,1131.93
2022-07-30T04:58:05.461Z,1131.91
2022-07-30T04:59:05.457Z,1131.92
2022-07-30T05:00:05.457Z,1131.92
2022-07-30T05:01:05.455Z,1131.91
2022-07-30T05:02:05.555Z,1131.93
2022-07-30T05:03:05.461Z,1131.93
2022-07-30T05:04:05.461Z,1131.95
2022-07-30T05:05:05.473Z,1131.96
2022-07-30T05:06:05.467Z,1132.01
2022-07-30T05:07:05.466Z,1132.01
2022-07-30T05:08:05.468Z,1132.06
2022-07-30T05:09:05.471Z,1132.13
2022-07-30T05:10:05.473Z,1132.13
2022-07-30T05:11:05.473Z,1132.12
2022-07-30T05:12:05.476Z,1132.11
2022-07-30T05:13:05.478Z,1132.12
2022-07-30T05:14:05.488Z,1132.11
2022-07-30T05:15:05.482Z,1132.12
2022-07-30T05:16:05.530Z,1132.14
2022-07-30T05:17:05.483Z,1132.08
2022-07-30T05:18:05.487Z,1132.09
2022-07-30T05:19:07.501Z,1132.12
2022-07-30T05:20:05.492Z,1132.05
2022-07-30T05:21:05.496Z,1132.09
2022-07-30T05:22:06.774Z,1132.07
2022-07-30T05:23:05.495Z,1132.08
2022-07-30T05:24:05.509Z,1132.03
2022-07-30T05:25:05.498Z,1132.05
2022-07-30T05:26:05.502Z,1132.04
2022-07-30T05:27:05.537Z,1132.07
2022-07-30T05:28:05.502Z,1132.1
2022-07-30T05:29:07.104Z,1132.11
2022-07-30T05:30:05.507Z,1132.16
2022-07-30T05:31:08.622Z,1132.17
2022-07-30T05:32:05.512Z,1132.13
2022-07-30T05:33:15.374Z,1132.16
2022-07-30T05:34:05.515Z,1132.12
2022-07-30T05:35:05.543Z,1132.08
2022-07-30T05:36:05.517Z,1132.05
2022-07-30T05:37:05.523Z,1132.02
2022-07-30T05:38:05.529Z,1132.01
2022-07-30T05:39:05.528Z,1131.95
2022-07-30T05:40:05.552Z,1131.94
2022-07-30T05:41:05.526Z,1131.88
2022-07-30T05:42:05.529Z,1131.82
2022-07-30T05:43:05.527Z,1131.82
2022-07-30T05:44:05.616Z,1131.79
2022-07-30T05:45:05.558Z,1131.8
2022-07-30T05:46:05.611Z,1131.73
2022-07-30T05:47:05.540Z,1131.7
2022-07-30T05:48:05.536Z,1131.7
2022-07-30T05:49:05.588Z,1131.61
2022-07-30T05:50:05.677Z,1131.59
2022-07-30T05:51:05.545Z,1131.52
2022-07-30T05:52:05.546Z,1131.49
2022-07-30T05:53:05.548Z,1131.38
2022-07-30T05:54:05.561Z,1131.29
2022-07-30T05:55:05.581Z,1131.2
2022-07-30T05:56:05.554Z,1131.12
2022-07-30T05:57:05.556Z,1131.09
2022-07-30T05:58:05.556Z,1131.04
2022-07-30T05:59:05.560Z,1131.01
2022-07-30T06:00:05.590Z,1130.93
2022-07-30T06:01:05.563Z,1130.93
2022-07-30T06:02:05.565Z,1130.89
2022-07-30T06:03:05.567Z,1130.86
2022-07-30T06:04:05.605Z,1130.78
2022-07-30T06:05:05.665Z,1130.71
2022-07-30T06:06:05.578Z,1130.64
2022-07-30T06:07:05.572Z,1130.54
2022-07-30T06:08:05.704Z,1130.43
2022-07-30T06:09:05.575Z,1130.34
2022-07-30T06:10:05.605Z,1130.23
2022-07-30T06:11:05.580Z,1130.17
2022-07-30T06:12:05.580Z,1130.07
2022-07-30T06:13:05.585Z,1129.97
2022-07-30T06:14:05.607Z,1130
2022-07-30T06:15:05.612Z,1129.92
2022-07-30T06:16:05.662Z,1129.9
2022-07-30T06:17:05.591Z,1129.79
2022-07-30T06:18:05.591Z,1129.71
2022-07-30T06:19:05.594Z,1129.54
2022-07-30T06:20:05.619Z,1129.41
2022-07-30T06:21:05.599Z,1129.26
2022-07-30T06:22:07.151Z,1129.07
2022-07-30T06:23:05.605Z,1128.93
2022-07-30T06:24:05.602Z,1128.57
2022-07-30T06:25:05.634Z,1127.95
2022-07-30T06:26:05.607Z,1127.99
2022-07-30T06:27:05.622Z,1127.87
2022-07-30T06:28:21.216Z,1127.86
2022-07-30T06:29:05.624Z,1127.68
2022-07-30T06:30:05.727Z,1127.51
2022-07-30T06:31:05.706Z,1127.05
2022-07-30T06:32:05.614Z,1126
2022-07-30T06:33:05.617Z,1125.91
2022-07-30T06:34:05.621Z,1125.59
2022-07-30T06:35:05.668Z,1125.41
2022-07-30T06:36:05.623Z,1125.07
2022-07-30T06:37:05.625Z,1124.6
2022-07-30T06:38:08.781Z,1124.11
2022-07-30T06:39:05.633Z,1123.65
2022-07-30T06:40:05.654Z,1123.11
2022-07-30T06:41:05.634Z,1121.99
2022-07-30T06:42:05.637Z,1119.91
2022-07-30T06:43:05.638Z,1118.22
2022-07-30T06:44:05.640Z,1116.78
2022-07-30T06:45:05.678Z,1116.37
2022-07-30T06:46:05.721Z,1116.05
2022-07-30T06:47:07.979Z,1115.56
2022-07-30T06:48:05.649Z,1115.2
2022-07-30T06:49:06.905Z,1115.08
2022-07-30T06:50:05.672Z,1114.93
2022-07-30T06:51:05.655Z,1115.16
2022-07-30T06:52:05.651Z,1115.5
2022-07-30T06:53:05.689Z,1115.88
2022-07-30T06:54:05.664Z,1115.95
2022-07-30T06:55:05.718Z,1115.89
2022-07-30T06:56:05.660Z,1115.87
2022-07-30T06:57:05.663Z,1115.97
2022-07-30T06:58:05.666Z,1116.21
2022-07-30T06:59:05.665Z,1116.53
2022-07-30T07:00:08.956Z,1117.07
2022-07-30T07:01:05.714Z,1117.66
2022-07-30T07:02:05.687Z,1118.1
2022-07-30T07:03:08.678Z,1118.58
2022-07-30T07:04:05.715Z,1118.79
2022-07-30T07:05:05.677Z,1119.03
2022-07-30T07:06:05.676Z,1119.12
2022-07-30T07:07:12.391Z,1119.35
2022-07-30T07:08:05.681Z,1119.42
2022-07-30T07:09:05.684Z,1119.33
2022-07-30T07:10:05.863Z,1119.11
2022-07-30T07:11:08.682Z,1118.57
2022-07-30T07:12:05.689Z,1117.2
2022-07-30T07:13:05.690Z,1116.27
2022-07-30T07:14:05.701Z,1113.6
2022-07-30T07:15:05.692Z,1109.43
2022-07-30T07:16:05.697Z,1107.44
2022-07-30T07:17:06.009Z,1106.55
2022-07-30T07:18:05.699Z,1105.53
2022-07-30T07:19:05.700Z,1104.82
2022-07-30T07:20:05.705Z,1104.07
2022-07-30T07:21:05.703Z,1103.17
2022-07-30T07:22:08.564Z,1101.74
2022-07-30T07:23:09.078Z,1100.69
2022-07-30T07:24:05.718Z,1099.36
2022-07-30T07:25:05.712Z,1098.63
2022-07-30T07:26:05.714Z,1097.6
2022-07-30T07:27:05.718Z,1096.19
2022-07-30T07:28:11.438Z,1096.01
2022-07-30T07:29:05.719Z,1096.26
2022-07-30T07:30:06.358Z,1096.32
2022-07-30T07:31:05.790Z,1096.21
2022-07-30T07:32:10.315Z,1094.46
2022-07-30T07:33:10.257Z,1092.03
2022-07-30T07:34:12.251Z,1092.36
2022-07-30T07:35:10.254Z,1092.89
2022-07-30T07:36:10.256Z,1092.8
2022-07-30T07:37:10.261Z,1092.35
2022-07-30T07:38:10.260Z,1091.24
2022-07-30T07:39:12.960Z,1090.49
2022-07-30T07:40:10.267Z,1090.07
2022-07-30T07:41:10.266Z,1090.01
2022-07-30T07:42:10.276Z,1089.9
2022-07-30T07:43:10.271Z,1089.98
2022-07-30T07:44:10.274Z,1090.13
2022-07-30T07:45:10.273Z,1089.83
2022-07-30T07:46:10.324Z,1089.22
2022-07-30T07:47:10.275Z,1089.16
2022-07-30T07:48:10.283Z,1089.05
2022-07-30T07:49:10.355Z,1088.72
2022-07-30T07:50:10.283Z,1088.48
2022-07-30T07:51:10.282Z,1088.07
2022-07-30T07:52:10.283Z,1086.79
2022-07-30T07:53:10.287Z,1086.24
2022-07-30T07:54:20.798Z,1085.82
2022-07-30T07:55:10.335Z,1085.7
2022-07-30T07:56:10.298Z,1085.91
2022-07-30T07:57:10.577Z,1086.39
2022-07-30T07:58:10.299Z,1087.06
2022-07-30T07:59:10.322Z,1087.87
2022-07-30T08:00:10.299Z,1088.98
2022-07-30T08:01:10.430Z,1090.05
2022-07-30T08:02:10.368Z,1091.26
2022-07-30T08:03:10.306Z,1092.03
2022-07-30T08:04:10.695Z,1092.7
2022-07-30T08:05:10.313Z,1093.2
2022-07-30T08:06:14.716Z,1093.65
2022-07-30T08:07:10.332Z,1093.95
2022-07-30T08:08:10.317Z,1094.21
2022-07-30T08:09:10.319Z,1094.56
2022-07-30T08:10:10.318Z,1094.33
2022-07-30T08:11:10.319Z,1093.46
2022-07-30T08:12:10.324Z,1089.2
2022-07-30T08:13:48.207Z,1084.7
2022-07-30T08:14:10.329Z,1079.23
2022-07-30T08:15:10.333Z,1074.78
2022-07-30T08:16:10.871Z,1071.7
2022-07-30T08:17:10.426Z,1066.3
2022-07-30T08:18:10.338Z,1062.85
2022-07-30T08:19:10.334Z,1056.88
2022-07-30T08:20:10.341Z,1052.66
2022-07-30T08:21:10.337Z,1046.52
2022-07-30T08:22:10.345Z,1046.09
2022-07-30T08:23:10.342Z,1046.48
2022-07-30T08:24:10.344Z,1047.74
2022-07-30T08:25:10.349Z,1049.5
2022-07-30T08:26:10.387Z,1050.99
2022-07-30T08:27:10.394Z,1052.52
2022-07-30T08:28:20.097Z,1053.65
2022-07-30T08:29:13.025Z,1054.81
2022-07-30T08:30:10.377Z,1055.71
2022-07-30T08:31:10.359Z,1057.21
2022-07-30T08:32:11.366Z,1058.12
2022-07-30T08:33:10.393Z,1058.65
2022-07-30T08:34:10.397Z,1058.2
2022-07-30T08:35:10.396Z,1058.11
2022-07-30T08:36:10.529Z,1058.4
2022-07-30T08:37:10.373Z,1058.93
2022-07-30T08:38:10.480Z,1058.35
2022-07-30T08:39:10.384Z,1056.04
2022-07-30T08:40:10.388Z,1056.21
2022-07-30T08:41:10.384Z,1056.35
2022-07-30T08:42:10.387Z,1056.73
2022-07-30T08:43:10.430Z,1057.62
2022-07-30T08:44:11.794Z,1057.73
2022-07-30T08:45:10.390Z,1058.27
2022-07-30T08:46:10.412Z,1058.9
2022-07-30T08:47:10.426Z,1059.46
2022-07-30T08:48:13.645Z,1060.25
2022-07-30T08:49:13.142Z,1061.3
2022-07-30T08:50:10.398Z,1062.56
2022-07-30T08:51:10.411Z,1064.33
2022-07-30T08:52:10.413Z,1066.23
2022-07-30T08:53:10.400Z,1068.64
2022-07-30T08:54:10.422Z,1070.44
2022-07-30T08:55:10.399Z,1071.75
2022-07-30T08:56:10.405Z,1072.55
2022-07-30T08:57:10.407Z,1073.17
2022-07-30T08:58:10.417Z,1073.85
2022-07-30T08:59:10.407Z,1074.18
2022-07-30T09:00:11.587Z,1074.11
2022-07-30T09:01:10.412Z,1073.72
2022-07-30T09:02:12.739Z,1072.88
2022-07-30T09:03:10.429Z,1071.52
2022-07-30T09:04:10.423Z,1070.95
2022-07-30T09:05:10.431Z,1069.97
2022-07-30T09:06:10.421Z,1067.84
2022-07-30T09:07:10.429Z,1065.23
2022-07-30T09:08:10.425Z,1057.38
2022-07-30T09:09:10.427Z,1053.48
2022-07-30T09:10:11.456Z,1050.72
2022-07-30T09:11:13.249Z,1048.33
2022-07-30T09:12:10.439Z,1046.5
2022-07-30T09:13:10.436Z,1045.91
2022-07-30T09:14:10.437Z,1046.45
2022-07-30T09:15:10.438Z,1046.81
2022-07-30T09:16:10.514Z,1046.68
2022-07-30T09:17:10.444Z,1046.18
2022-07-30T09:18:10.444Z,1045.68
2022-07-30T09:19:10.446Z,1044.92
2022-07-30T09:20:10.448Z,1043.42
2022-07-30T09:21:10.449Z,1038.27
2022-07-30T09:22:13.494Z,1035.03
2022-07-30T09:23:10.449Z,1034.3
2022-07-30T09:24:10.454Z,1034.19
2022-07-30T09:25:10.455Z,1033.55
2022-07-30T09:26:10.459Z,1032.75
2022-07-30T09:27:10.460Z,1027.63
2022-07-30T09:28:16.501Z,1019.73
2022-07-30T09:29:10.465Z,1017.43
2022-07-30T09:30:10.464Z,1015.53
2022-07-30T09:31:10.469Z,1012.48
2022-07-30T09:32:10.477Z,1010.85
2022-07-30T09:33:10.473Z,1004.13
2022-07-30T09:34:10.474Z,1000.99
2022-07-30T09:35:10.476Z,1000.84
2022-07-30T09:36:10.479Z,1001.47
2022-07-30T09:37:10.478Z,1001.96
2022-07-30T09:38:10.479Z,1002.21
2022-07-30T09:39:10.485Z,1003.22
2022-07-30T09:40:10.484Z,1004.16
2022-07-30T09:41:22.995Z,1005.12
2022-07-30T09:42:10.505Z,1005.53
2022-07-30T09:43:10.488Z,1005.7
2022-07-30T09:44:10.495Z,1005.06
2022-07-30T09:45:10.492Z,1001.7
2022-07-30T09:46:10.495Z,996.76
2022-07-30T09:47:10.498Z,997.12
2022-07-30T09:48:10.498Z,998.14
2022-07-30T09:49:10.588Z,999.34
2022-07-30T09:50:10.505Z,998.91
2022-07-30T09:51:15.840Z,991.6
2022-07-30T09:52:10.753Z,984.61
2022-07-30T09:53:11.843Z,978.14
2022-07-30T09:54:10.513Z,971.44
2022-07-30T09:55:10.514Z,964.38
2022-07-30T09:56:10.514Z,956.42
2022-07-30T09:57:15.992Z,948.62
2022-07-30T09:58:12.608Z,940.69
2022-07-30T09:59:18.392Z,932.89
2022-07-30T10:00:10.522Z,925.18
2022-07-30T10:01:10.528Z,919.12
2022-07-30T10:02:10.639Z,918.32
2022-07-30T10:03:12.460Z,909.24
2022-07-30T10:04:10.529Z,901.12
2022-07-30T10:05:10.530Z,892.43
2022-07-30T10:06:11.290Z,886.06
2022-07-30T10:07:10.536Z,886.6
2022-07-30T10:08:16.517Z,886.71
2022-07-30T10:09:13.804Z,886.84
2022-07-30T10:10:10.540Z,883.53
2022-07-30T10:11:10.544Z,883.97
2022-07-30T10:12:10.940Z,886.24
2022-07-30T10:13:10.547Z,886.13
2022-07-30T10:14:10.552Z,877.59
2022-07-30T10:15:10.551Z,870.98
2022-07-30T10:16:10.574Z,866.61
2022-07-30T10:17:10.557Z,862.31
2022-07-30T10:18:10.553Z,863.91
2022-07-30T10:19:13.706Z,863.63
2022-07-30T10:20:10.565Z,866.8
2022-07-30T10:21:10.596Z,867.17
2022-07-30T10:22:10.578Z,865.99
2022-07-30T10:23:10.566Z,867.97
2022-07-30T10:24:10.565Z,861.13
2022-07-30T10:25:10.570Z,854.9
2022-07-30T10:26:10.595Z,849.01
2022-07-30T10:27:10.575Z,842.26
2022-07-30T10:28:10.575Z,837.03
2022-07-30T10:29:10.981Z,831.38
2022-07-30T10:30:13.726Z,825.9
2022-07-30T10:31:47.860Z,822.02
2022-07-30T10:32:10.604Z,817.7
2022-07-30T10:33:34.308Z,817.83
2022-07-30T10:34:10.584Z,818.11
2022-07-30T10:35:10.586Z,811.44
2022-07-30T10:36:10.613Z,804.38
2022-07-30T10:37:10.589Z,799.19
2022-07-30T10:38:13.616Z,798.94
2022-07-30T10:39:10.600Z,800.43
2022-07-30T10:40:10.597Z,802.91
2022-07-30T10:41:10.623Z,804.38
2022-07-30T10:42:10.604Z,811.11
2022-07-30T10:43:10.607Z,819.37
2022-07-30T10:44:10.605Z,827.97
2022-07-30T10:45:10.606Z,834.84
2022-07-30T10:46:19.884Z,842.1
2022-07-30T10:47:10.841Z,849.69
2022-07-30T10:48:10.616Z,856.87
2022-07-30T10:49:11.869Z,863.91
2022-07-30T10:50:11.802Z,870.43
2022-07-30T10:51:10.640Z,877.14
2022-07-30T10:52:10.628Z,884.66
2022-07-30T10:53:10.621Z,891.7
2022-07-30T10:54:11.227Z,900.18
2022-07-30T10:55:10.630Z,906.98
2022-07-30T10:56:10.651Z,914.39
2022-07-30T10:57:10.631Z,921.23
2022-07-30T10:58:10.632Z,927.25
2022-07-30T10:59:10.635Z,933.43
2022-07-30T11:00:10.641Z,938.14
2022-07-30T11:01:16.579Z,942.93
2022-07-30T11:02:10.639Z,947.64
2022-07-30T11:03:14.283Z,952.3
2022-07-30T11:04:10.646Z,957.24
2022-07-30T11:05:10.683Z,962.06
2022-07-30T11:06:10.671Z,966.64
2022-07-30T11:07:13.500Z,970.54
2022-07-30T11:08:10.648Z,974.68
2022-07-30T11:09:10.658Z,978.03
2022-07-30T11:10:10.656Z,982.18
2022-07-30T11:11:16.313Z,986.33
2022-07-30T11:12:22.713Z,988.92
2022-07-30T11:13:25.007Z,990.97
2022-07-30T11:14:22.694Z,992.49
2022-07-30T11:15:22.706Z,994.31
2022-07-30T11:16:22.723Z,995.67
2022-07-30T11:17:22.706Z,996.94
2022-07-30T11:18:24.857Z,997.45
2022-07-30T11:19:53.544Z,997.6
2022-07-30T11:20:22.709Z,997.41
2022-07-30T11:21:22.874Z,996.66
2022-07-30T11:22:22.715Z,995.61
2022-07-30T11:23:22.717Z,994.4
2022-07-30T11:24:22.719Z,993.11
2022-07-30T11:25:22.715Z,992.78
2022-07-30T11:26:22.743Z,992.79
2022-07-30T11:27:22.722Z,993.26
2022-07-30T11:28:25.643Z,993.35
2022-07-30T11:29:32.748Z,994.86
2022-07-30T11:30:23.508Z,995.8
2022-07-30T11:31:22.777Z,996.89
2022-07-30T11:32:22.727Z,997.79
2022-07-30T11:33:22.731Z,997.87
2022-07-30T11:34:24.176Z,995.3
2022-07-30T11:35:23.214Z,988.15
2022-07-30T11:36:24.360Z,982.24
2022-07-30T11:37:31.936Z,973.37
2022-07-30T11:38:22.740Z,963.54
2022-07-30T11:39:29.877Z,953.25
2022-07-30T11:40:26.067Z,942.43
2022-07-30T11:41:22.773Z,943.78
2022-07-30T11:42:22.753Z,944.63
2022-07-30T11:43:35.407Z,945.77
2022-07-30T11:44:22.756Z,946.96
2022-07-30T11:45:22.758Z,946.97
2022-07-30T11:46:29.084Z,947.04
2022-07-30T11:47:22.755Z,947.36
2022-07-30T11:48:22.764Z,947.18
2022-07-30T11:49:22.869Z,947.04
2022-07-30T11:50:25.582Z,940.92
2022-07-30T11:51:22.791Z,940.44
2022-07-30T11:52:22.776Z,941.1
2022-07-30T11:53:22.770Z,941.57
2022-07-30T11:54:22.771Z,942.7
2022-07-30T11:55:22.774Z,944.28
2022-07-30T11:56:22.803Z,945.93
2022-07-30T11:57:22.778Z,948.09
2022-07-30T11:58:22.780Z,951.49
2022-07-30T11:59:22.787Z,955.26
2022-07-30T12:00:22.784Z,958.84
2022-07-30T12:01:26.174Z,961.55
2022-07-30T12:02:22.790Z,963.48
2022-07-30T12:03:22.791Z,965.99
2022-07-30T12:04:22.792Z,967.29
2022-07-30T12:05:22.791Z,967.9
2022-07-30T12:06:22.793Z,967.55
2022-07-30T12:07:22.801Z,968.36
2022-07-30T12:08:31.918Z,969.4
2022-07-30T12:09:22.799Z,970.05
2022-07-30T12:10:25.789Z,970.68
2022-07-30T12:11:22.803Z,972.03
2022-07-30T12:12:22.809Z,973.6
2022-07-30T12:13:22.807Z,975.57
2022-07-30T12:14:22.810Z,977.35
2022-07-30T12:15:22.811Z,979.3
2022-07-30T12:16:22.822Z,981.5
2022-07-30T12:17:22.816Z,983.88
2022-07-30T12:18:26.809Z,986.14